Time;durP1;ratioP1;P1;durP2;ratioP2;P2;SDS_P1;SDS_P2;PMS_P1;PMS_P2;Temp;Humidity;BMP_temperature;BMP_pressure;BME280_temperature;BME280_humidity;BME280_pressure;Samples;Min_cycle;Max_cycle;Signal;HPM_P1;HPM_P2
2021/08/06 00:01:15;;;;;;;4.72;2.10;;;21.90;62.10;;;;;;5053153;28;20041;-58
2021/08/06 00:03:40;;;;;;;5.13;2.30;;;21.90;62.10;;;;;;5053195;28;20017;-59
2021/08/06 00:06:07;;;;;;;5.18;2.40;;;21.90;62.10;;;;;;5053179;28;20025;-59
2021/08/06 00:08:33;;;;;;;3.63;2.20;;;21.90;62.10;;;;;;5053516;28;20025;-58
2021/08/06 00:10:59;;;;;;;6.55;2.55;;;21.90;62.10;;;;;;5053083;28;20476;-59
2021/08/06 00:13:25;;;;;;;4.47;2.10;;;21.90;62.10;;;;;;5053099;28;20029;-59
2021/08/06 00:15:51;;;;;;;5.15;2.20;;;21.80;62.20;;;;;;5053311;28;20385;-58
2021/08/06 00:18:17;;;;;;;4.63;2.10;;;21.90;62.10;;;;;;5053577;28;20056;-58
2021/08/06 00:20:43;;;;;;;5.30;2.60;;;21.90;62.00;;;;;;5053196;28;20565;-59
2021/08/06 00:23:08;;;;;;;4.85;2.20;;;21.90;62.10;;;;;;5052958;28;20538;-58
2021/08/06 00:25:34;;;;;;;4.32;2.30;;;21.90;62.10;;;;;;5053009;28;20033;-58
2021/08/06 00:27:59;;;;;;;5.30;2.00;;;21.90;62.10;;;;;;5052883;28;20021;-59
2021/08/06 00:30:26;;;;;;;4.22;1.95;;;21.90;62.00;;;;;;5052826;28;20040;-58
2021/08/06 00:32:52;;;;;;;6.53;2.50;;;21.90;62.10;;;;;;5052810;28;20029;-58
2021/08/06 00:35:18;;;;;;;4.18;2.05;;;21.80;62.10;;;;;;5052636;28;20075;-59
2021/08/06 00:37:43;;;;;;;5.32;2.15;;;21.90;62.10;;;;;;5052449;28;20082;-58
2021/08/06 00:40:09;;;;;;;5.00;2.38;;;21.80;62.10;;;;;;5052780;28;20079;-58
2021/08/06 00:42:35;;;;;;;4.65;2.35;;;21.90;62.20;;;;;;5052740;28;20028;-58
2021/08/06 00:45:01;;;;;;;4.35;1.95;;;21.80;62.10;;;;;;5052738;28;20069;-58
2021/08/06 00:47:27;;;;;;;4.63;2.15;;;21.90;62.10;;;;;;5052592;28;20354;-58
2021/08/06 00:49:53;;;;;;;4.40;2.08;;;21.90;62.10;;;;;;5052624;28;20433;-58
2021/08/06 00:52:18;;;;;;;5.72;2.45;;;21.80;62.10;;;;;;5052673;28;20104;-59
2021/08/06 00:54:44;;;;;;;4.50;2.30;;;21.80;62.10;;;;;;5052522;28;20064;-58
2021/08/06 00:57:14;;;;;;;4.15;2.00;;;21.80;62.10;;;;;;5052847;28;20017;-58
2021/08/06 00:59:40;;;;;;;3.85;1.98;;;21.80;62.10;;;;;;5056448;28;20354;-59
2021/08/06 01:02:19;;;;;;;7.93;3.45;;;21.80;62.20;;;;;;5052993;28;20032;-58
2021/08/06 01:05:06;;;;;;;5.70;2.53;;;21.80;62.20;;;;;;5052684;28;20029;-58
2021/08/06 01:07:46;;;;;;;4.38;2.15;;;21.80;62.20;;;;;;5052563;28;20021;-58
2021/08/06 01:10:12;;;;;;;4.97;2.28;;;21.80;62.10;;;;;;5052774;28;20021;-60
2021/08/06 01:12:49;;;;;;;4.22;2.08;;;21.80;62.10;;;;;;5052615;28;20077;-58
2021/08/06 01:15:16;;;;;;;4.65;2.17;;;21.80;62.20;;;;;;5052542;28;20022;-58
2021/08/06 01:17:45;;;;;;;4.90;2.20;;;21.80;62.20;;;;;;5052377;28;20492;-58
2021/08/06 01:20:24;;;;;;;3.80;2.08;;;21.80;62.20;;;;;;5052651;28;20041;-58
2021/08/06 01:23:12;;;;;;;6.20;2.65;;;21.70;62.20;;;;;;5052351;28;20035;-58
2021/08/06 01:25:58;;;;;;;3.92;1.77;;;21.80;62.20;;;;;;5052413;28;20025;-60
2021/08/06 01:28:31;;;;;;;4.78;2.30;;;21.70;62.10;;;;;;5052677;28;20377;-58
2021/08/06 01:30:57;;;;;;;3.83;2.00;;;21.80;62.10;;;;;;5052459;28;20108;-58
2021/08/06 01:33:22;;;;;;;4.40;2.40;;;21.80;62.20;;;;;;5052787;28;20025;-58
2021/08/06 01:35:48;;;;;;;4.65;2.35;;;21.70;62.20;;;;;;5061151;28;20056;-58
2021/08/06 01:38:16;;;;;;;4.10;2.30;;;21.80;62.20;;;;;;5060700;28;20159;-59
2021/08/06 01:41:00;;;;;;;4.10;1.98;;;21.80;62.10;;;;;;5053578;28;20523;-58
2021/08/06 01:43:31;;;;;;;3.80;2.13;;;21.70;62.20;;;;;;5053316;28;20067;-59
2021/08/06 01:46:06;;;;;;;5.13;2.20;;;21.80;62.20;;;;;;5053070;28;20083;-59
2021/08/06 01:48:36;;;;;;;6.13;2.42;;;21.70;62.20;;;;;;5052199;28;20017;-59
2021/08/06 01:51:06;;;;;;;5.07;2.20;;;21.70;62.20;;;;;;5055548;28;20435;-59
2021/08/06 01:53:36;;;;;;;4.47;2.40;;;21.70;62.20;;;;;;5055834;28;20021;-59
2021/08/06 01:56:07;;;;;;;4.78;2.40;;;21.70;62.20;;;;;;5055608;28;20029;-58
2021/08/06 01:58:34;;;;;;;4.82;2.50;;;21.70;62.20;;;;;;5055953;28;20071;-58
2021/08/06 02:01:00;;;;;;;4.68;2.47;;;21.70;62.20;;;;;;5055492;28;20396;-58
2021/08/06 02:03:26;;;;;;;4.28;2.35;;;21.70;62.20;;;;;;5055585;28;20025;-58
2021/08/06 02:05:52;;;;;;;4.88;2.30;;;21.70;62.20;;;;;;5058488;28;20036;-58
2021/08/06 02:08:19;;;;;;;4.80;2.33;;;21.70;62.20;;;;;;5059509;28;20086;-61
2021/08/06 02:10:45;;;;;;;4.68;2.10;;;21.70;62.20;;;;;;5055432;28;20029;-59
2021/08/06 02:13:11;;;;;;;4.80;2.10;;;21.70;62.20;;;;;;5055383;28;20032;-58
2021/08/06 02:15:40;;;;;;;3.78;2.22;;;21.70;62.20;;;;;;5055418;28;20392;-58
2021/08/06 02:18:07;;;;;;;5.53;2.35;;;21.70;62.20;;;;;;5055367;28;20514;-58
2021/08/06 02:20:34;;;;;;;4.88;2.55;;;21.70;62.20;;;;;;5055134;28;20484;-58
2021/08/06 02:23:01;;;;;;;4.72;2.33;;;21.70;62.20;;;;;;5055166;28;20048;-58
2021/08/06 02:25:27;;;;;;;6.13;2.53;;;21.70;62.30;;;;;;5055403;28;20178;-58
2021/08/06 02:27:53;;;;;;;4.70;2.30;;;21.60;62.20;;;;;;5055053;28;20492;-58
2021/08/06 02:30:21;;;;;;;4.50;2.17;;;21.70;62.30;;;;;;5055071;28;20034;-58
2021/08/06 02:32:47;;;;;;;4.70;2.28;;;21.70;62.20;;;;;;5055098;28;20423;-58
2021/08/06 02:35:13;;;;;;;5.97;1.98;;;21.70;62.30;;;;;;5054885;28;20049;-58
2021/08/06 02:37:41;;;;;;;4.05;1.88;;;21.70;62.30;;;;;;5054933;28;20058;-58
2021/08/06 02:40:07;;;;;;;5.10;2.40;;;21.70;62.20;;;;;;5055250;28;20468;-60
2021/08/06 02:42:34;;;;;;;5.20;2.33;;;21.70;62.20;;;;;;5054799;28;20053;-58
2021/08/06 02:45:00;;;;;;;3.85;2.10;;;21.70;62.20;;;;;;5054740;28;20017;-58
2021/08/06 02:47:26;;;;;;;5.55;2.05;;;21.60;62.30;;;;;;5054758;28;20025;-59
2021/08/06 02:49:51;;;;;;;5.03;2.17;;;21.70;62.20;;;;;;5060304;28;20028;-60
2021/08/06 02:52:17;;;;;;;4.22;2.28;;;21.60;62.20;;;;;;5056232;28;20025;-58
2021/08/06 02:54:42;;;;;;;5.03;2.25;;;21.60;62.30;;;;;;5054844;28;20032;-58
2021/08/06 02:57:08;;;;;;;5.57;2.47;;;21.70;62.30;;;;;;5054784;28;20066;-58
2021/08/06 02:59:33;;;;;;;6.35;2.63;;;21.60;62.30;;;;;;5054762;28;20078;-58
2021/08/06 03:01:59;;;;;;;5.20;2.60;;;21.60;62.30;;;;;;5054524;28;20480;-58
2021/08/06 03:04:24;;;;;;;4.70;2.50;;;21.60;62.30;;;;;;5054676;28;20033;-58
2021/08/06 03:06:49;;;;;;;4.20;2.20;;;21.60;62.30;;;;;;5054566;28;20170;-58
2021/08/06 03:09:15;;;;;;;5.30;2.40;;;21.60;62.30;;;;;;5054612;28;20029;-58
2021/08/06 03:11:41;;;;;;;4.55;2.33;;;21.60;62.30;;;;;;5054216;28;20055;-58
2021/08/06 03:14:06;;;;;;;4.18;2.17;;;21.60;62.30;;;;;;5054256;28;20025;-58
2021/08/06 03:16:32;;;;;;;5.47;2.30;;;21.60;62.20;;;;;;5054247;28;20102;-59
2021/08/06 03:18:57;;;;;;;3.88;2.13;;;21.60;62.30;;;;;;5054123;28;20465;-58
2021/08/06 03:21:23;;;;;;;5.22;2.60;;;21.60;62.30;;;;;;5053947;28;20029;-58
2021/08/06 03:23:48;;;;;;;4.90;2.35;;;21.60;62.30;;;;;;5054040;28;20056;-58
2021/08/06 03:26:14;;;;;;;4.47;2.30;;;21.60;62.30;;;;;;5054101;28;20031;-58
2021/08/06 03:28:39;;;;;;;4.35;2.15;;;21.60;62.40;;;;;;5053932;28;20025;-59
2021/08/06 03:31:05;;;;;;;4.63;2.47;;;21.60;62.40;;;;;;5055140;28;20031;-58
2021/08/06 03:33:30;;;;;;;3.88;2.20;;;21.60;62.30;;;;;;5057076;28;20060;-58
2021/08/06 03:35:56;;;;;;;4.68;2.30;;;21.60;62.40;;;;;;5054173;28;20045;-58
2021/08/06 03:38:24;;;;;;;4.30;2.30;;;21.60;62.40;;;;;;5054487;28;20032;-58
2021/08/06 03:40:51;;;;;;;3.58;1.95;;;21.60;62.40;;;;;;5058626;28;20037;-58
2021/08/06 03:43:16;;;;;;;4.28;2.17;;;21.60;62.40;;;;;;5060031;28;20388;-58
2021/08/06 03:45:42;;;;;;;3.78;2.10;;;21.60;62.40;;;;;;5058024;28;20029;-58
2021/08/06 03:48:09;;;;;;;4.82;2.70;;;21.60;62.40;;;;;;5058167;28;20086;-60
2021/08/06 03:50:35;;;;;;;4.65;2.50;;;21.50;62.40;;;;;;5059024;28;20068;-58
2021/08/06 03:53:01;;;;;;;4.07;2.22;;;21.50;62.40;;;;;;5058866;28;20057;-58
2021/08/06 03:55:27;;;;;;;3.97;2.13;;;21.50;62.40;;;;;;5058878;28;20029;-59
2021/08/06 03:57:58;;;;;;;5.55;2.30;;;21.50;62.30;;;;;;5057376;28;20028;-58
2021/08/06 04:00:26;;;;;;;5.68;2.38;;;21.60;62.40;;;;;;5056440;28;20496;-58
2021/08/06 04:02:52;;;;;;;5.15;2.40;;;21.50;62.40;;;;;;5055168;28;20036;-58
2021/08/06 04:05:17;;;;;;;4.75;2.25;;;21.50;62.40;;;;;;5053903;28;20029;-58
2021/08/06 04:07:44;;;;;;;4.18;2.10;;;21.50;62.40;;;;;;5053395;28;20383;-58
2021/08/06 04:10:11;;;;;;;4.53;2.70;;;21.50;62.40;;;;;;5053702;28;20108;-58
2021/08/06 04:12:37;;;;;;;5.95;2.50;;;21.50;62.40;;;;;;5052783;28;20540;-60
2021/08/06 04:15:03;;;;;;;4.93;2.45;;;21.50;62.40;;;;;;5054434;28;20049;-60
2021/08/06 04:17:29;;;;;;;5.20;2.33;;;21.50;62.40;;;;;;5053127;28;20388;-58
2021/08/06 04:19:54;;;;;;;4.78;2.35;;;21.50;62.40;;;;;;5053043;28;20468;-58
2021/08/06 04:22:20;;;;;;;3.65;2.05;;;21.50;62.40;;;;;;5053039;28;20040;-58
2021/08/06 04:24:45;;;;;;;4.95;2.30;;;21.50;62.50;;;;;;5055648;28;20028;-59
2021/08/06 04:27:11;;;;;;;5.32;2.40;;;21.50;62.40;;;;;;5053113;28;20549;-58
2021/08/06 04:29:36;;;;;;;4.85;2.22;;;21.50;62.50;;;;;;5054015;28;20048;-58
2021/08/06 04:32:02;;;;;;;4.80;2.40;;;21.50;62.40;;;;;;5052859;28;20393;-58
2021/08/06 04:34:28;;;;;;;5.78;2.40;;;21.50;62.50;;;;;;5052528;28;20542;-58
2021/08/06 04:36:54;;;;;;;5.05;2.40;;;21.50;62.50;;;;;;5053006;28;20103;-58
2021/08/06 04:39:20;;;;;;;4.63;2.53;;;21.50;62.50;;;;;;5052860;28;20013;-58
2021/08/06 04:41:48;;;;;;;7.82;2.17;;;21.50;62.50;;;;;;5052863;28;20118;-58
2021/08/06 04:44:14;;;;;;;4.15;2.30;;;21.50;62.50;;;;;;5052997;28;20376;-58
2021/08/06 04:46:40;;;;;;;4.38;2.03;;;21.50;62.50;;;;;;5052676;28;20029;-60
2021/08/06 04:49:05;;;;;;;6.25;2.53;;;21.50;62.50;;;;;;5052633;28;20546;-58
2021/08/06 04:51:30;;;;;;;5.57;2.47;;;21.50;62.40;;;;;;5052644;28;20025;-58
2021/08/06 04:53:56;;;;;;;4.50;2.40;;;21.50;62.50;;;;;;5052645;28;20380;-58
2021/08/06 04:56:22;;;;;;;3.58;2.00;;;21.50;62.50;;;;;;5052487;28;20096;-59
2021/08/06 04:58:47;;;;;;;4.28;2.38;;;21.50;62.50;;;;;;5052591;28;20460;-58
2021/08/06 05:01:13;;;;;;;5.45;2.15;;;21.50;62.50;;;;;;5052528;28;20079;-58
2021/08/06 05:03:38;;;;;;;4.75;2.25;;;21.50;62.50;;;;;;5052516;28;20459;-58
2021/08/06 05:06:04;;;;;;;4.47;2.30;;;21.50;62.40;;;;;;5052485;28;20029;-58
2021/08/06 05:08:29;;;;;;;5.30;2.63;;;21.50;62.50;;;;;;5052493;28;20108;-58
2021/08/06 05:10:55;;;;;;;4.32;2.22;;;21.50;62.50;;;;;;5052667;28;20487;-58
2021/08/06 05:13:20;;;;;;;4.20;2.17;;;21.50;62.50;;;;;;5052502;28;20023;-58
2021/08/06 05:15:46;;;;;;;6.13;2.03;;;21.50;62.50;;;;;;5052434;28;20025;-58
2021/08/06 05:18:12;;;;;;;4.72;2.30;;;21.50;62.40;;;;;;5052257;28;20029;-58
2021/08/06 05:20:37;;;;;;;4.85;2.30;;;21.50;62.50;;;;;;5052293;28;20412;-58
2021/08/06 05:23:04;;;;;;;4.45;2.25;;;21.50;62.50;;;;;;5052383;28;20029;-58
2021/08/06 05:25:30;;;;;;;4.03;2.00;;;21.50;62.40;;;;;;5055196;28;20028;-59
2021/08/06 05:27:55;;;;;;;4.55;2.30;;;21.50;62.50;;;;;;5056250;28;20025;-58
2021/08/06 05:30:22;;;;;;;5.80;2.65;;;21.50;62.40;;;;;;5056077;28;20131;-59
2021/08/06 05:32:51;;;;;;;4.55;2.28;;;21.50;62.40;;;;;;5056041;28;20385;-58
2021/08/06 05:35:17;;;;;;;3.83;2.28;;;21.50;62.40;;;;;;5055827;28;20091;-59
2021/08/06 05:37:43;;;;;;;4.03;2.00;;;21.50;62.50;;;;;;5056019;28;20078;-58
2021/08/06 05:40:09;;;;;;;4.32;2.33;;;21.50;62.40;;;;;;5055918;28;20025;-58
2021/08/06 05:42:34;;;;;;;4.03;2.25;;;21.50;62.40;;;;;;5055957;28;20060;-58
2021/08/06 05:45:01;;;;;;;4.47;2.40;;;21.50;62.50;;;;;;5055890;28;20032;-58
2021/08/06 05:47:27;;;;;;;4.32;2.40;;;21.50;62.50;;;;;;5055820;28;20029;-58
2021/08/06 05:49:52;;;;;;;5.35;2.58;;;21.50;62.50;;;;;;5055730;28;20384;-58
2021/08/06 05:52:18;;;;;;;4.80;2.13;;;21.50;62.40;;;;;;5055806;28;20033;-58
2021/08/06 05:54:44;;;;;;;4.68;2.20;;;21.50;62.40;;;;;;5055783;28;20025;-58
2021/08/06 05:57:10;;;;;;;4.15;2.03;;;21.50;62.40;;;;;;5055637;28;20450;-58
2021/08/06 05:59:35;;;;;;;4.15;1.98;;;21.50;62.40;;;;;;5055525;28;20040;-58
2021/08/06 06:02:00;;;;;;;4.72;2.22;;;21.50;62.30;;;;;;5055798;28;20029;-58
2021/08/06 06:04:26;;;;;;;4.25;2.10;;;21.50;62.30;;;;;;5055505;28;20368;-58
2021/08/06 06:06:51;;;;;;;4.47;2.30;;;21.50;62.30;;;;;;5055460;28;20033;-58
2021/08/06 06:09:17;;;;;;;4.60;2.30;;;21.50;62.30;;;;;;5055539;28;20075;-58
2021/08/06 06:11:42;;;;;;;3.58;2.15;;;21.50;62.30;;;;;;5055291;28;20100;-58
2021/08/06 06:14:08;;;;;;;4.55;2.50;;;21.50;62.30;;;;;;5055411;28;20029;-57
2021/08/06 06:16:33;;;;;;;4.70;2.30;;;21.50;62.30;;;;;;5055693;28;20032;-58
2021/08/06 06:18:59;;;;;;;4.15;2.13;;;21.50;62.40;;;;;;5055465;28;20029;-58
2021/08/06 06:21:24;;;;;;;3.55;2.03;;;21.50;62.40;;;;;;5055133;28;20045;-58
2021/08/06 06:23:50;;;;;;;5.18;2.38;;;21.50;62.40;;;;;;5055140;28;20025;-58
2021/08/06 06:26:16;;;;;;;4.90;2.17;;;21.50;62.40;;;;;;5055203;28;20090;-58
2021/08/06 06:28:41;;;;;;;3.90;2.20;;;21.50;62.30;;;;;;5055092;28;20021;-58
2021/08/06 06:31:07;;;;;;;4.15;2.10;;;21.50;62.30;;;;;;5055122;28;20029;-58
2021/08/06 06:33:33;;;;;;;4.13;2.10;;;21.50;62.20;;;;;;5054842;28;20017;-59
2021/08/06 06:35:58;;;;;;;4.07;2.35;;;21.50;62.20;;;;;;5054214;28;20052;-58
2021/08/06 06:38:24;;;;;;;4.93;2.35;;;21.50;62.20;;;;;;5061408;28;20032;-58
2021/08/06 06:40:50;;;;;;;4.55;2.20;;;21.50;62.10;;;;;;5054741;28;20542;-58
2021/08/06 06:43:16;;;;;;;3.80;1.80;;;21.50;62.20;;;;;;5054794;28;20051;-58
2021/08/06 06:45:41;;;;;;;4.35;1.88;;;21.50;62.10;;;;;;5055007;28;20105;-58
2021/08/06 06:48:08;;;;;;;4.45;2.40;;;21.50;62.20;;;;;;5062391;28;20029;-58
2021/08/06 06:50:34;;;;;;;4.75;2.13;;;21.50;62.10;;;;;;5056285;28;20021;-58
2021/08/06 06:53:00;;;;;;;3.90;2.13;;;21.50;62.10;;;;;;5054733;28;20527;-58
2021/08/06 06:55:26;;;;;;;5.07;2.33;;;21.60;62.10;;;;;;5054651;28;20079;-58
2021/08/06 06:57:56;;;;;;;3.05;1.80;;;21.60;62.10;;;;;;5054473;28;20017;-58
2021/08/06 07:00:25;;;;;;;3.65;2.17;;;21.50;62.10;;;;;;5054247;28;20086;-58
2021/08/06 07:02:51;;;;;;;4.00;2.03;;;21.60;62.10;;;;;;5054306;28;20085;-58
2021/08/06 07:05:17;;;;;;;4.22;2.00;;;21.50;62.10;;;;;;5054455;28;20112;-58
2021/08/06 07:07:42;;;;;;;3.80;2.03;;;21.60;62.10;;;;;;5054187;28;20056;-58
2021/08/06 07:10:09;;;;;;;3.38;1.73;;;21.60;62.10;;;;;;5054185;28;20057;-58
2021/08/06 07:12:37;;;;;;;4.22;2.17;;;21.60;62.10;;;;;;5054064;28;20029;-58
2021/08/06 07:15:04;;;;;;;4.47;2.28;;;21.50;62.10;;;;;;5054275;28;20103;-58
2021/08/06 07:17:33;;;;;;;3.90;1.98;;;21.60;62.10;;;;;;5054002;28;20049;-58
2021/08/06 07:19:59;;;;;;;4.95;2.20;;;21.50;62.10;;;;;;5054193;28;20481;-59
2021/08/06 07:22:25;;;;;;;4.55;2.47;;;21.60;62.10;;;;;;5054080;28;20028;-58
2021/08/06 07:24:50;;;;;;;4.82;2.15;;;21.60;62.10;;;;;;5054195;28;20025;-58
2021/08/06 07:27:16;;;;;;;2.72;1.50;;;21.60;62.10;;;;;;5053815;28;20514;-58
2021/08/06 07:29:41;;;;;;;4.65;1.90;;;21.50;62.10;;;;;;5053914;28;20033;-59
2021/08/06 07:32:07;;;;;;;4.55;2.13;;;21.60;62.10;;;;;;5054067;28;20104;-59
2021/08/06 07:34:32;;;;;;;5.05;2.30;;;21.60;62.10;;;;;;5053522;28;20049;-59
2021/08/06 07:36:58;;;;;;;4.00;1.90;;;21.60;62.20;;;;;;5054044;28;20128;-59
2021/08/06 07:39:23;;;;;;;3.50;1.90;;;21.60;62.20;;;;;;5053610;28;20032;-59
2021/08/06 07:41:50;;;;;;;4.45;2.10;;;21.50;62.10;;;;;;5053206;28;20415;-59
2021/08/06 07:44:16;;;;;;;3.90;2.00;;;21.60;62.20;;;;;;5053659;28;20013;-59
2021/08/06 07:46:41;;;;;;;4.22;1.92;;;21.60;62.10;;;;;;5053558;28;20460;-58
2021/08/06 07:49:07;;;;;;;3.67;1.88;;;21.60;62.20;;;;;;5057654;28;20431;-59
2021/08/06 07:51:33;;;;;;;3.50;1.83;;;21.60;62.20;;;;;;5053585;28;20098;-59
2021/08/06 07:53:59;;;;;;;4.65;2.13;;;21.60;62.20;;;;;;5053962;28;20041;-59
2021/08/06 07:56:24;;;;;;;3.78;2.00;;;21.60;62.20;;;;;;5053236;28;20079;-59
2021/08/06 07:58:50;;;;;;;3.95;1.90;;;21.60;62.20;;;;;;5051967;28;20128;-59
2021/08/06 08:01:15;;;;;;;3.78;1.90;;;21.60;62.20;;;;;;5052942;28;20044;-59
2021/08/06 08:03:41;;;;;;;4.07;2.05;;;21.60;62.20;;;;;;5053180;28;20108;-59
2021/08/06 08:06:06;;;;;;;4.63;2.33;;;21.60;62.20;;;;;;5053226;28;20465;-58
2021/08/06 08:08:32;;;;;;;3.65;1.90;;;21.60;62.20;;;;;;5052972;28;20036;-59
2021/08/06 08:10:58;;;;;;;3.88;1.85;;;21.60;62.20;;;;;;5053243;28;20095;-59
2021/08/06 08:13:24;;;;;;;4.30;2.40;;;21.60;62.20;;;;;;5053193;28;20025;-59
2021/08/06 08:15:50;;;;;;;4.63;2.20;;;21.60;62.20;;;;;;5053075;28;20388;-59
2021/08/06 08:18:15;;;;;;;3.70;2.00;;;21.60;62.20;;;;;;5052946;28;20060;-58
2021/08/06 08:20:41;;;;;;;4.20;2.00;;;21.60;62.30;;;;;;5052713;28;20531;-59
2021/08/06 08:23:07;;;;;;;4.00;2.00;;;21.60;62.20;;;;;;5052778;28;20104;-59
2021/08/06 08:25:32;;;;;;;2.90;1.75;;;21.60;62.20;;;;;;5052742;28;20031;-59
2021/08/06 08:27:58;;;;;;;3.55;1.90;;;21.70;62.20;;;;;;5052801;28;20028;-58
2021/08/06 08:30:23;;;;;;;3.38;1.67;;;21.70;62.20;;;;;;5052814;28;20036;-58
2021/08/06 08:32:49;;;;;;;3.63;1.95;;;21.70;62.20;;;;;;5052832;28;20071;-59
2021/08/06 08:35:14;;;;;;;3.70;1.95;;;21.70;62.20;;;;;;5052384;28;20045;-59
2021/08/06 08:37:40;;;;;;;4.03;1.90;;;21.70;62.20;;;;;;5052798;28;20095;-59
2021/08/06 08:40:08;;;;;;;4.43;2.22;;;21.70;62.10;;;;;;5052433;28;20098;-59
2021/08/06 08:42:33;;;;;;;4.28;2.25;;;21.70;62.10;;;;;;5052589;28;20013;-59
2021/08/06 08:45:01;;;;;;;3.03;1.80;;;21.80;62.20;;;;;;5052604;28;20372;-59
2021/08/06 08:47:33;;;;;;;4.78;1.90;;;21.70;62.20;;;;;;5052613;28;20029;-59
2021/08/06 08:50:01;;;;;;;2.90;1.73;;;21.70;62.10;;;;;;5052666;28;20029;-58
2021/08/06 08:52:27;;;;;;;4.72;2.17;;;21.70;62.20;;;;;;5052251;28;20036;-59
2021/08/06 08:54:52;;;;;;;3.30;1.60;;;21.70;62.20;;;;;;5052383;28;20104;-58
2021/08/06 08:57:23;;;;;;;3.92;2.03;;;21.70;62.20;;;;;;5052445;28;20108;-59
2021/08/06 08:59:49;;;;;;;3.13;1.70;;;21.70;62.20;;;;;;5055908;28;20053;-59
2021/08/06 09:02:16;;;;;;;4.38;2.20;;;21.70;62.20;;;;;;5056538;28;20100;-59
2021/08/06 09:04:44;;;;;;;4.20;2.00;;;21.70;62.20;;;;;;5056487;28;20025;-58
2021/08/06 09:07:27;;;;;;;4.35;2.17;;;21.70;62.30;;;;;;5056450;28;20027;-59
2021/08/06 09:10:09;;;;;;;3.50;2.03;;;21.70;62.20;;;;;;5056593;28;20017;-59
2021/08/06 09:13:00;;;;;;;4.10;2.05;;;21.70;62.30;;;;;;5056472;28;20096;-58
2021/08/06 09:15:58;;;;;;;4.50;1.90;;;21.70;62.30;;;;;;5056578;28;20033;-59
2021/08/06 09:18:23;;;;;;;3.42;1.70;;;21.70;62.30;;;;;;5056245;28;20017;-58
2021/08/06 09:21:00;;;;;;;3.03;1.67;;;21.70;62.30;;;;;;5055987;28;20091;-58
2021/08/06 09:23:47;;;;;;;3.92;1.77;;;21.70;62.30;;;;;;5056366;28;20024;-58
2021/08/06 09:26:28;;;;;;;3.70;1.80;;;21.70;62.20;;;;;;5056498;28;20029;-58
2021/08/06 09:29:18;;;;;;;4.22;2.20;;;21.70;62.20;;;;;;5056218;28;20036;-58
2021/08/06 09:31:50;;;;;;;3.88;1.65;;;21.70;62.20;;;;;;5053201;28;20033;-58
2021/08/06 09:34:19;;;;;;;3.83;1.85;;;21.80;62.20;;;;;;5057403;28;20049;-59
2021/08/06 09:36:59;;;;;;;3.10;1.60;;;21.80;62.30;;;;;;5057210;28;20120;-59
2021/08/06 09:39:30;;;;;;;3.38;1.40;;;21.80;62.20;;;;;;5055919;28;20427;-59
2021/08/06 09:41:56;;;;;;;4.90;2.10;;;21.80;62.20;;;;;;5055793;28;20037;-60
2021/08/06 09:44:25;;;;;;;2.55;1.50;;;21.80;62.20;;;;;;5055835;28;20075;-59
2021/08/06 09:46:51;;;;;;;3.67;1.65;;;21.80;62.20;;;;;;5055769;28;20029;-59
2021/08/06 09:49:18;;;;;;;2.70;1.42;;;21.80;62.20;;;;;;5055798;28;20076;-59
2021/08/06 09:51:46;;;;;;;3.25;1.80;;;21.80;62.20;;;;;;5055807;28;20098;-59
2021/08/06 09:54:19;;;;;;;3.50;1.77;;;21.80;62.20;;;;;;5055629;28;20073;-59
2021/08/06 09:56:46;;;;;;;3.35;1.50;;;21.90;62.20;;;;;;5055655;28;20020;-59
2021/08/06 09:59:12;;;;;;;3.67;1.98;;;21.80;62.20;;;;;;5055574;28;20029;-59
2021/08/06 10:01:38;;;;;;;4.80;2.00;;;21.90;62.20;;;;;;5055802;28;20037;-59
2021/08/06 10:04:14;;;;;;;2.65;1.35;;;21.90;62.10;;;;;;5055902;28;20032;-59
2021/08/06 10:06:58;;;;;;;4.40;2.22;;;21.90;62.20;;;;;;5055449;28;20039;-59
2021/08/06 10:09:24;;;;;;;3.22;1.70;;;21.90;62.20;;;;;;5055262;28;20013;-59
2021/08/06 10:11:50;;;;;;;3.33;1.52;;;22.00;62.10;;;;;;5054537;28;20025;-59
2021/08/06 10:14:16;;;;;;;3.45;1.88;;;22.00;62.10;;;;;;5055279;28;20040;-59
2021/08/06 10:16:42;;;;;;;2.45;1.45;;;22.00;62.00;;;;;;5055220;28;20025;-59
2021/08/06 10:19:08;;;;;;;3.42;1.50;;;22.00;62.00;;;;;;5055278;28;20028;-59
2021/08/06 10:21:34;;;;;;;4.18;1.70;;;22.00;62.10;;;;;;5055105;28;20542;-60
2021/08/06 10:24:00;;;;;;;4.07;1.90;;;22.00;62.00;;;;;;5055116;28;20021;-59
2021/08/06 10:26:25;;;;;;;4.13;2.20;;;22.00;62.00;;;;;;5055204;28;20108;-59
2021/08/06 10:28:51;;;;;;;4.80;1.83;;;22.00;62.00;;;;;;5055261;28;20052;-59
2021/08/06 10:31:21;;;;;;;3.30;1.73;;;22.00;62.00;;;;;;5054848;28;20071;-59
2021/08/06 10:34:08;;;;;;;3.90;2.03;;;22.00;62.00;;;;;;5054603;28;20029;-59
2021/08/06 10:36:43;;;;;;;3.92;1.83;;;22.00;62.00;;;;;;5055046;28;20041;-59
2021/08/06 10:39:30;;;;;;;3.33;1.88;;;22.00;62.00;;;;;;5054927;28;20025;-60
2021/08/06 10:41:57;;;;;;;3.70;1.83;;;22.00;62.00;;;;;;5054915;28;20041;-59
2021/08/06 10:44:22;;;;;;;3.05;1.52;;;22.00;62.00;;;;;;5054753;28;20031;-59
2021/08/06 10:46:57;;;;;;;3.88;1.70;;;22.00;62.00;;;;;;5054681;28;20092;-59
2021/08/06 10:49:22;;;;;;;3.80;1.55;;;22.00;62.10;;;;;;5054473;28;20028;-59
2021/08/06 10:51:48;;;;;;;3.70;1.67;;;22.00;61.90;;;;;;5054699;28;20025;-59
2021/08/06 10:54:26;;;;;;;4.82;2.30;;;22.00;62.00;;;;;;5054562;28;20036;-59
2021/08/06 10:57:15;;;;;;;3.08;1.67;;;22.00;62.00;;;;;;5054343;28;20538;-59
2021/08/06 10:59:41;;;;;;;4.65;1.92;;;22.00;61.90;;;;;;5054173;28;20055;-59
2021/08/06 11:02:43;;;;;;;4.78;1.70;;;22.00;62.00;;;;;;5054785;28;20033;-59
2021/08/06 11:05:31;;;;;;;3.28;1.83;;;22.00;62.00;;;;;;5054414;28;20025;-59
2021/08/06 11:08:00;;;;;;;3.45;1.63;;;22.00;62.00;;;;;;5054450;28;20025;-59
2021/08/06 11:10:52;;;;;;;3.67;1.85;;;22.00;61.90;;;;;;5054461;28;20054;-59
2021/08/06 11:13:46;;;;;;;4.25;1.85;;;22.10;61.90;;;;;;5058257;28;20029;-59
2021/08/06 11:16:12;;;;;;;3.08;1.50;;;22.10;61.80;;;;;;5052127;28;20472;-59
2021/08/06 11:18:45;;;;;;;2.80;1.60;;;22.10;61.80;;;;;;5054365;28;20044;-59
2021/08/06 11:21:12;;;;;;;3.22;1.65;;;22.10;61.90;;;;;;5054119;28;20430;-59
2021/08/06 11:23:38;;;;;;;3.67;1.65;;;22.10;61.90;;;;;;5054474;28;20029;-59
2021/08/06 11:26:12;;;;;;;3.85;1.73;;;22.10;61.90;;;;;;5054374;28;20055;-59
2021/08/06 11:28:38;;;;;;;2.42;1.42;;;22.10;61.90;;;;;;5054283;28;20526;-59
2021/08/06 11:31:17;;;;;;;3.33;1.48;;;22.10;61.90;;;;;;5054270;28;20120;-59
2021/08/06 11:33:42;;;;;;;2.85;1.50;;;22.00;61.90;;;;;;5058558;28;20139;-59
2021/08/06 11:36:15;;;;;;;3.30;1.67;;;22.10;61.90;;;;;;5055426;28;20037;-59
2021/08/06 11:38:41;;;;;;;3.10;1.58;;;22.00;62.00;;;;;;5053859;28;20100;-59
2021/08/06 11:41:07;;;;;;;3.00;1.50;;;22.00;62.10;;;;;;5053636;28;20171;-60
2021/08/06 11:43:36;;;;;;;3.10;1.63;;;22.00;62.10;;;;;;5053658;28;20116;-62
2021/08/06 11:46:11;;;;;;;4.13;2.10;;;22.00;62.00;;;;;;5054000;28;20086;-60
2021/08/06 11:48:50;;;;;;;4.28;1.70;;;22.10;62.10;;;;;;5053876;28;20052;-59
2021/08/06 11:51:17;;;;;;;3.22;1.70;;;22.10;62.00;;;;;;5053646;28;20421;-59
2021/08/06 11:53:42;;;;;;;2.97;1.50;;;22.10;62.00;;;;;;5053822;28;20060;-59
2021/08/06 11:56:16;;;;;;;4.22;1.75;;;22.00;62.00;;;;;;5053761;28;20086;-59
2021/08/06 11:58:42;;;;;;;;;;;22.10;62.00;;;;;;5054290;28;20099;-59
2021/08/06 12:01:18;;;;;;;2.92;1.60;;;22.00;62.10;;;;;;5053371;28;19952;-59
2021/08/06 12:03:49;;;;;;;2.40;1.35;;;22.00;62.00;;;;;;5053523;28;20112;-59
2021/08/06 12:06:15;;;;;;;3.90;1.67;;;22.00;62.10;;;;;;5053404;28;20040;-59
2021/08/06 12:08:42;;;;;;;3.58;1.67;;;22.10;62.10;;;;;;5055229;28;20039;-60
2021/08/06 12:11:10;;;;;;;2.72;1.60;;;22.00;62.10;;;;;;5065340;28;20032;-60
2021/08/06 12:13:58;;;;;;;4.70;1.95;;;22.10;62.10;;;;;;5057147;28;20112;-60
2021/08/06 12:16:35;;;;;;;3.53;1.80;;;22.00;62.10;;;;;;5053442;28;20067;-60
2021/08/06 12:19:02;;;;;;;3.40;1.60;;;22.00;62.00;;;;;;5053010;28;20057;-59
2021/08/06 12:21:39;;;;;;;3.72;1.63;;;22.00;62.00;;;;;;5053396;28;20033;-59
2021/08/06 12:24:12;;;;;;;4.15;1.73;;;22.00;62.10;;;;;;5053588;28;20385;-60
2021/08/06 12:26:42;;;;;;;3.97;1.85;;;22.00;62.10;;;;;;5053041;28;20108;-60
2021/08/06 12:29:10;;;;;;;2.97;1.48;;;22.10;62.00;;;;;;5052899;28;20025;-59
2021/08/06 12:31:52;;;;;;;3.05;1.48;;;22.10;62.00;;;;;;5053010;28;20029;-59
2021/08/06 12:34:30;;;;;;;2.72;1.75;;;22.10;62.00;;;;;;5052233;28;20037;-60
2021/08/06 12:37:04;;;;;;;3.28;1.80;;;22.10;61.90;;;;;;5053140;28;20475;-60
2021/08/06 12:39:37;;;;;;;3.53;1.80;;;22.20;61.70;;;;;;5053027;28;20354;-60
2021/08/06 12:42:18;;;;;;;2.88;1.48;;;22.30;61.60;;;;;;5052653;28;20037;-60
2021/08/06 12:45:05;;;;;;;2.65;1.50;;;22.30;61.50;;;;;;5052779;28;20021;-60
2021/08/06 12:47:48;;;;;;;3.42;1.80;;;22.40;61.60;;;;;;5052737;28;20040;-60
2021/08/06 12:50:26;;;;;;;4.30;1.77;;;22.40;61.40;;;;;;5052665;28;20059;-60
2021/08/06 12:52:58;;;;;;;3.15;1.63;;;22.50;61.30;;;;;;5051498;28;20383;-60
2021/08/06 12:55:24;;;;;;;3.88;1.80;;;22.60;61.00;;;;;;5052918;28;20023;-60